Time;durP1;ratioP1;P1;durP2;ratioP2;P2;SDS_P1;SDS_P2;PMS_P1;PMS_P2;Temp;Humidity;BMP_temperature;BMP_pressure;BME280_temperature;BME280_humidity;BME280_pressure;Samples;Min_cycle;Max_cycle;Signal;HPM_P1;HPM_P2
2022/06/08 00:00:23;;;;;;;11.18;7.47;;;;;;;;;;4998540;28;20042;-73
2022/06/08 00:02:52;;;;;;;14.13;8.20;;;;;;;;;;4997819;28;20042;-73
2022/06/08 00:05:18;;;;;;;13.15;7.82;;;;;;;;;;4997923;28;20058;-73
2022/06/08 00:07:44;;;;;;;15.32;8.20;;;;;;;;;;5010905;28;20046;-73
2022/06/08 00:10:11;;;;;;;16.85;8.55;;;;;;;;;;4998017;28;20046;-74
2022/06/08 00:12:37;;;;;;;12.82;7.55;;;;;;;;;;4993148;28;20604;-73
2022/06/08 00:15:04;;;;;;;14.55;7.95;;;;;;;;;;4979517;28;20070;-73
2022/06/08 00:17:30;;;;;;;13.18;7.47;;;;;;;;;;4979220;28;20491;-73
2022/06/08 00:19:56;;;;;;;10.70;6.63;;;;;;;;;;4978929;28;20138;-73
2022/06/08 00:22:23;;;;;;;12.27;7.13;;;;;;;;;;4998730;28;20042;-73
2022/06/08 00:24:49;;;;;;;12.38;7.70;;;;;;;;;;5018249;28;20402;-73
2022/06/08 00:27:15;;;;;;;11.65;7.50;;;;;;;;;;4998557;28;20047;-72
2022/06/08 00:29:41;;;;;;;6.50;5.90;;;;;;;;;;4998522;28;20076;-73
2022/06/08 00:32:07;;;;;;;10.80;6.93;;;;;;;;;;4997870;28;20046;-73
2022/06/08 00:34:33;;;;;;;7.85;5.57;;;;;;;;;;4997571;28;20577;-73
2022/06/08 00:36:59;;;;;;;8.15;5.10;;;;;;;;;;4992697;28;20047;-73
2022/06/08 00:39:25;;;;;;;12.73;6.40;;;;;;;;;;4977367;28;20109;-73
2022/06/08 00:41:57;;;;;;;8.25;6.63;;;;;;;;;;4991846;28;20446;-73
2022/06/08 00:44:26;;;;;;;5.57;4.80;;;;;;;;;;4997553;28;20069;-73
2022/06/08 00:46:53;;;;;;;7.25;6.13;;;;;;;;;;5085343;23;20032;-74
2022/06/08 00:49:28;;;;;;;9.80;7.53;;;;;;;;;;5079700;28;20024;-74
2022/06/08 00:51:55;;;;;;;10.53;7.10;;;;;;;;;;5078830;28;20016;-74
2022/06/08 00:54:27;;;;;;;11.18;7.95;;;;;;;;;;5079564;28;20045;-74
2022/06/08 00:56:58;;;;;;;14.52;8.90;;;;;;;;;;5079068;28;20024;-74
2022/06/08 00:59:25;;;;;;;16.13;8.85;;;;;;;;;;5079647;28;20040;-74
2022/06/08 01:01:51;;;;;;;12.55;9.15;;;;;;;;;;5079481;28;20016;-74
2022/06/08 01:04:18;;;;;;;13.07;9.30;;;;;;;;;;5079352;28;20020;-74
2022/06/08 01:06:44;;;;;;;17.55;9.73;;;;;;;;;;5058352;28;20077;-76
2022/06/08 01:09:17;;;;;;;15.98;9.57;;;;;;;;;;5059057;28;20013;-76
2022/06/08 01:11:44;;;;;;;11.00;9.10;;;;;;;;;;5077232;28;20017;-74
2022/06/08 01:14:11;;;;;;;13.18;8.98;;;;;;;;;;5079510;28;20021;-74
2022/06/08 01:16:40;;;;;;;14.65;9.90;;;;;;;;;;5082413;28;20081;-74
2022/06/08 01:19:07;;;;;;;16.75;9.82;;;;;;;;;;5082753;28;20044;-74
2022/06/08 01:21:33;;;;;;;12.18;9.40;;;;;;;;;;5083433;28;20009;-74
2022/06/08 01:24:01;;;;;;;13.95;9.80;;;;;;;;;;5083029;28;20077;-75
2022/06/08 01:26:30;;;;;;;12.68;9.70;;;;;;;;;;5082518;28;20013;-75
2022/06/08 01:29:15;;;;;;;14.60;10.40;;;;;;;;;;5083200;28;20009;-76
2022/06/08 01:31:47;;;;;;;16.50;10.52;;;;;;;;;;5083286;28;20017;-74
2022/06/08 01:34:26;;;;;;;15.32;10.38;;;;;;;;;;5082214;28;20016;-75
2022/06/08 01:37:03;;;;;;;14.63;10.95;;;;;;;;;;5063108;28;20073;-76
2022/06/08 01:39:29;;;;;;;18.42;11.77;;;;;;;;;;5066880;28;20021;-76
2022/06/08 01:42:08;;;;;;;16.15;11.57;;;;;;;;;;5082647;28;20024;-76
2022/06/08 01:47:50;;;;;;;20.70;12.27;;;;;;;;;;5062941;28;20049;-74
2022/06/08 01:50:35;;;;;;;16.95;12.02;;;;;;;;;;5060680;28;20021;-74
2022/06/08 01:53:08;;;;;;;18.33;11.75;;;;;;;;;;5053400;28;20014;-74
2022/06/08 01:55:42;;;;;;;16.70;11.88;;;;;;;;;;5061790;28;20025;-74
2022/06/08 01:58:18;;;;;;;17.65;11.90;;;;;;;;;;5062266;28;20018;-74
2022/06/08 02:00:49;;;;;;;20.88;12.25;;;;;;;;;;5062751;28;20017;-74
2022/06/08 02:03:21;;;;;;;17.13;11.50;;;;;;;;;;5062669;28;20048;-74
2022/06/08 02:05:51;;;;;;;18.02;11.93;;;;;;;;;;5061690;28;20048;-74
2022/06/08 02:08:24;;;;;;;15.70;11.85;;;;;;;;;;5062600;28;20014;-74
2022/06/08 02:11:00;;;;;;;17.17;11.48;;;;;;;;;;5044050;28;20030;-74
2022/06/08 02:13:33;;;;;;;14.88;11.77;;;;;;;;;;5042690;28;20010;-74
2022/06/08 02:16:03;;;;;;;17.08;11.85;;;;;;;;;;5058041;28;20055;-74
2022/06/08 02:18:32;;;;;;;15.68;11.35;;;;;;;;;;5059540;28;20089;-75
2022/06/08 02:21:01;;;;;;;18.52;11.57;;;;;;;;;;5042054;28;20081;-76
2022/06/08 02:23:29;;;;;;;19.05;11.77;;;;;;;;;;5041977;28;20022;-76
2022/06/08 02:26:01;;;;;;;16.08;11.40;;;;;;;;;;5041296;28;20029;-74
2022/06/08 02:28:38;;;;;;;17.38;11.88;;;;;;;;;;5042408;28;20025;-75
2022/06/08 02:31:08;;;;;;;18.20;11.57;;;;;;;;;;5059651;28;20025;-74
2022/06/08 02:36:29;;;;;;;21.35;12.30;;;;;;;;;;5041642;28;20034;-74
2022/06/08 02:39:05;;;;;;;21.30;12.38;;;;;;;;;;5041674;28;20089;-74
2022/06/08 02:41:32;;;;;;;17.90;12.13;;;;;;;;;;5042138;28;20049;-74
2022/06/08 02:44:03;;;;;;;18.98;11.90;;;;;;;;;;5041978;28;20077;-74
2022/06/08 02:46:45;;;;;;;16.58;11.35;;;;;;;;;;5050036;28;20033;-74
2022/06/08 02:49:11;;;;;;;17.27;11.82;;;;;;;;;;5060842;28;20021;-74
2022/06/08 02:51:40;;;;;;;14.63;11.70;;;;;;;;;;5061809;28;20009;-74
2022/06/08 02:54:08;;;;;;;20.45;12.38;;;;;;;;;;5061724;28;20022;-74
2022/06/08 02:56:39;;;;;;;16.90;11.57;;;;;;;;;;5061633;28;20089;-74
2022/06/08 02:59:05;;;;;;;16.00;11.35;;;;;;;;;;5061158;28;20009;-74
2022/06/08 03:01:46;;;;;;;16.55;11.25;;;;;;;;;;5061577;28;20017;-74
2022/06/08 03:04:16;;;;;;;19.77;10.85;;;;;;;;;;5056752;28;20021;-74
2022/06/08 03:06:49;;;;;;;15.10;11.43;;;;;;;;;;5051204;28;20024;-74
2022/06/08 03:09:16;;;;;;;15.02;11.55;;;;;;;;;;5061042;28;20029;-74
2022/06/08 03:11:43;;;;;;;16.45;11.82;;;;;;;;;;5061415;28;20017;-74
2022/06/08 03:14:11;;;;;;;16.88;11.52;;;;;;;;;;5060656;28;20073;-75
2022/06/08 03:16:41;;;;;;;18.60;11.63;;;;;;;;;;5061064;28;20021;-75
2022/06/08 03:19:08;;;;;;;14.02;10.50;;;;;;;;;;5043781;28;20032;-75
2022/06/08 03:21:35;;;;;;;19.83;11.38;;;;;;;;;;5059640;28;20041;-75
2022/06/08 03:24:01;;;;;;;15.30;11.10;;;;;;;;;;5059821;28;20051;-75
2022/06/08 03:26:35;;;;;;;16.30;11.02;;;;;;;;;;5059730;28;20025;-74
2022/06/08 03:29:03;;;;;;;14.80;11.30;;;;;;;;;;5058814;28;20021;-74
2022/06/08 03:31:30;;;;;;;17.98;12.15;;;;;;;;;;5059416;28;20037;-74
2022/06/08 03:33:56;;;;;;;19.75;11.40;;;;;;;;;;5059138;28;20040;-74
2022/06/08 03:36:22;;;;;;;15.40;11.18;;;;;;;;;;5059310;28;20053;-74
2022/06/08 03:38:48;;;;;;;17.80;11.65;;;;;;;;;;5058525;28;20057;-73
2022/06/08 03:41:14;;;;;;;16.25;11.43;;;;;;;;;;5059445;28;20056;-74
2022/06/08 03:43:40;;;;;;;17.20;11.35;;;;;;;;;;5056444;28;20025;-74
2022/06/08 03:46:07;;;;;;;16.90;12.57;;;;;;;;;;5058975;28;20038;-74
2022/06/08 03:48:33;;;;;;;16.70;12.00;;;;;;;;;;5058369;28;20108;-74
2022/06/08 03:51:00;;;;;;;17.00;11.70;;;;;;;;;;5058311;28;20057;-74
2022/06/08 03:53:28;;;;;;;18.15;12.50;;;;;;;;;;5059222;28;20025;-74
2022/06/08 03:55:55;;;;;;;13.02;10.90;;;;;;;;;;5058552;28;20055;-74
2022/06/08 03:58:21;;;;;;;17.10;12.30;;;;;;;;;;5058398;28;20025;-74
2022/06/08 04:00:48;;;;;;;17.20;11.77;;;;;;;;;;5058468;28;20025;-74
2022/06/08 04:03:14;;;;;;;15.35;11.80;;;;;;;;;;5058152;28;20028;-74
2022/06/08 04:05:40;;;;;;;17.15;12.45;;;;;;;;;;5058651;28;20029;-74
2022/06/08 04:08:07;;;;;;;14.02;12.13;;;;;;;;;;5058881;28;20030;-73
2022/06/08 04:10:33;;;;;;;16.95;11.88;;;;;;;;;;5015464;23;20053;-84
2022/06/08 04:12:59;;;;;;;18.13;12.05;;;;;;;;;;4994987;28;20399;-84
2022/06/08 04:15:44;;;;;;;16.90;12.23;;;;;;;;;;4970562;28;20054;-84
2022/06/08 04:18:12;;;;;;;17.17;11.80;;;;;;;;;;4971943;28;20492;-84
2022/06/08 04:20:39;;;;;;;20.10;12.90;;;;;;;;;;4989586;28;20048;-84
2022/06/08 04:23:05;;;;;;;18.63;12.57;;;;;;;;;;4990207;28;20054;-84
2022/06/08 04:25:31;;;;;;;19.30;13.18;;;;;;;;;;4989577;28;20050;-84
2022/06/08 04:27:58;;;;;;;18.90;13.55;;;;;;;;;;4990187;28;20049;-84
2022/06/08 04:30:24;;;;;;;17.55;13.32;;;;;;;;;;4989950;28;20054;-84
2022/06/08 04:32:50;;;;;;;18.85;13.65;;;;;;;;;;4973307;28;20121;-84
2022/06/08 04:35:17;;;;;;;21.65;14.73;;;;;;;;;;4989491;28;20050;-84
2022/06/08 04:37:43;;;;;;;20.13;14.15;;;;;;;;;;4989796;28;20038;-84
2022/06/08 04:40:11;;;;;;;20.92;15.20;;;;;;;;;;5006064;28;20081;-84
2022/06/08 04:42:37;;;;;;;21.30;15.27;;;;;;;;;;5000180;28;20541;-84
2022/06/08 04:45:06;;;;;;;22.52;14.68;;;;;;;;;;4990305;28;20050;-84
2022/06/08 04:47:32;;;;;;;21.40;14.52;;;;;;;;;;4989264;28;20050;-84
2022/06/08 04:49:58;;;;;;;20.92;14.25;;;;;;;;;;4990248;28;20453;-84
2022/06/08 04:52:24;;;;;;;18.98;14.23;;;;;;;;;;4988940;28;20049;-84
2022/06/08 04:54:50;;;;;;;20.65;15.20;;;;;;;;;;4991413;28;20164;-84
2022/06/08 04:57:16;;;;;;;23.35;15.55;;;;;;;;;;4987952;28;20050;-84
2022/06/08 04:59:42;;;;;;;27.08;16.27;;;;;;;;;;4990851;28;20052;-84
2022/06/08 05:02:08;;;;;;;19.80;14.52;;;;;;;;;;4988524;28;20046;-84
2022/06/08 05:04:35;;;;;;;24.77;17.15;;;;;;;;;;4991027;28;20129;-84
2022/06/08 05:07:01;;;;;;;33.72;18.52;;;;;;;;;;4989098;28;20073;-85
2022/06/08 05:09:27;;;;;;;29.95;18.35;;;;;;;;;;4990552;28;20050;-85
2022/06/08 05:11:53;;;;;;;27.75;17.05;;;;;;;;;;4989915;28;20046;-85
2022/06/08 05:14:19;;;;;;;21.60;16.15;;;;;;;;;;4990789;28;20129;-85
2022/06/08 05:16:46;;;;;;;23.15;15.52;;;;;;;;;;4988985;28;20053;-85
2022/06/08 05:19:12;;;;;;;23.30;15.65;;;;;;;;;;4990635;28;20050;-85
2022/06/08 05:21:38;;;;;;;22.00;15.23;;;;;;;;;;4989292;28;20112;-84
2022/06/08 05:24:05;;;;;;;22.00;15.40;;;;;;;;;;4989164;28;20372;-86
2022/06/08 05:26:31;;;;;;;20.52;14.73;;;;;;;;;;4989430;28;20084;-85
2022/06/08 05:28:57;;;;;;;22.95;15.45;;;;;;;;;;4990394;28;20077;-85
2022/06/08 05:31:23;;;;;;;21.40;15.88;;;;;;;;;;4990078;28;20085;-86
2022/06/08 05:33:49;;;;;;;24.75;15.80;;;;;;;;;;4990458;28;20039;-85
2022/06/08 05:36:16;;;;;;;24.15;16.42;;;;;;;;;;5001910;28;20050;-85
2022/06/08 05:38:42;;;;;;;24.08;15.88;;;;;;;;;;4988351;28;20078;-85
2022/06/08 05:41:08;;;;;;;21.17;16.30;;;;;;;;;;4989541;28;20035;-85
2022/06/08 05:43:34;;;;;;;24.33;16.15;;;;;;;;;;4987509;28;20038;-86
2022/06/08 05:46:01;;;;;;;22.60;16.05;;;;;;;;;;4989049;28;20050;-85
2022/06/08 05:48:27;;;;;;;22.63;16.73;;;;;;;;;;4989374;28;20050;-85
2022/06/08 05:50:53;;;;;;;26.13;16.33;;;;;;;;;;4987739;28;20487;-84
2022/06/08 05:53:20;;;;;;;23.15;16.67;;;;;;;;;;4988597;28;20558;-84
2022/06/08 05:55:46;;;;;;;24.17;17.00;;;;;;;;;;4989890;28;20042;-84
2022/06/08 05:58:12;;;;;;;21.48;15.52;;;;;;;;;;4988439;28;20047;-85
2022/06/08 06:00:39;;;;;;;26.98;17.08;;;;;;;;;;4987904;28;20054;-84
2022/06/08 06:03:07;;;;;;;22.77;15.63;;;;;;;;;;4991740;28;20041;-85
2022/06/08 06:05:34;;;;;;;22.83;16.73;;;;;;;;;;4992777;28;20046;-85
2022/06/08 06:08:00;;;;;;;21.63;16.23;;;;;;;;;;4991228;28;20042;-85
2022/06/08 06:10:27;;;;;;;23.65;16.23;;;;;;;;;;4992210;28;20204;-84
2022/06/08 06:12:54;;;;;;;21.35;15.93;;;;;;;;;;4990085;28;20038;-84
2022/06/08 06:15:20;;;;;;;19.25;15.10;;;;;;;;;;4992797;28;20554;-85
2022/06/08 06:17:46;;;;;;;21.83;15.32;;;;;;;;;;4998143;28;20030;-84
2022/06/08 06:20:12;;;;;;;21.35;15.32;;;;;;;;;;5002129;28;20047;-84
2022/06/08 06:22:38;;;;;;;21.35;15.07;;;;;;;;;;4975773;28;20042;-84
2022/06/08 06:25:05;;;;;;;23.92;16.02;;;;;;;;;;4990865;28;20046;-84
2022/06/08 06:27:31;;;;;;;21.67;15.55;;;;;;;;;;4992378;28;20558;-84
2022/06/08 06:29:58;;;;;;;23.00;15.43;;;;;;;;;;4992291;28;20399;-84
2022/06/08 06:32:28;;;;;;;21.08;15.02;;;;;;;;;;4981558;28;20046;-84
2022/06/08 06:34:55;;;;;;;23.08;15.25;;;;;;;;;;4991322;28;20042;-85
2022/06/08 06:37:21;;;;;;;20.08;14.68;;;;;;;;;;4993083;28;20570;-85
2022/06/08 06:39:47;;;;;;;21.23;14.77;;;;;;;;;;4991402;28;20050;-84
2022/06/08 06:42:18;;;;;;;24.20;15.75;;;;;;;;;;4989770;28;20503;-85
2022/06/08 06:44:44;;;;;;;19.70;14.00;;;;;;;;;;4991642;28;20043;-85
2022/06/08 06:47:11;;;;;;;19.23;14.38;;;;;;;;;;4989595;28;20050;-84
2022/06/08 06:49:37;;;;;;;20.13;13.13;;;;;;;;;;4992849;28;20561;-85
2022/06/08 06:52:03;;;;;;;16.83;12.85;;;;;;;;;;4990717;28;20046;-85
2022/06/08 06:54:29;;;;;;;15.07;12.05;;;;;;;;;;4992207;28;20049;-84
2022/06/08 06:56:55;;;;;;;15.88;11.60;;;;;;;;;;4992141;28;20038;-84
2022/06/08 06:59:21;;;;;;;20.23;12.07;;;;;;;;;;4994844;28;20056;-85
2022/06/08 07:01:48;;;;;;;14.43;11.05;;;;;;;;;;4991327;28;20683;-85
2022/06/08 07:04:14;;;;;;;12.77;10.82;;;;;;;;;;4991457;28;20042;-86
2022/06/08 07:06:40;;;;;;;13.43;10.20;;;;;;;;;;4999198;28;20057;-87
2022/06/08 07:09:06;;;;;;;14.63;10.20;;;;;;;;;;4988843;28;20054;-86
2022/06/08 07:11:37;;;;;;;15.95;10.30;;;;;;;;;;4990830;28;20101;-86
2022/06/08 07:14:05;;;;;;;13.05;9.98;;;;;;;;;;4989674;28;20046;-86
2022/06/08 07:16:32;;;;;;;12.45;9.50;;;;;;;;;;4992284;28;20399;-86
2022/06/08 07:18:58;;;;;;;14.38;9.98;;;;;;;;;;4991154;28;20050;-86
2022/06/08 07:21:24;;;;;;;13.13;10.02;;;;;;;;;;4992216;28;20592;-86
2022/06/08 07:23:50;;;;;;;13.88;9.98;;;;;;;;;;4992542;28;20571;-86
2022/06/08 07:26:19;;;;;;;12.05;10.25;;;;;;;;;;4990016;28;20057;-86
2022/06/08 07:28:45;;;;;;;15.43;10.13;;;;;;;;;;4990892;28;20139;-86
2022/06/08 07:31:14;;;;;;;18.38;10.25;;;;;;;;;;4992106;28;20085;-86
2022/06/08 07:33:41;;;;;;;13.85;10.00;;;;;;;;;;4991336;28;20045;-86
2022/06/08 07:36:07;;;;;;;14.20;10.50;;;;;;;;;;4992104;28;20081;-86
2022/06/08 07:38:33;;;;;;;11.23;9.73;;;;;;;;;;4974502;28;20165;-86
2022/06/08 07:40:59;;;;;;;12.77;9.55;;;;;;;;;;4991225;28;20053;-87
2022/06/08 07:43:25;;;;;;;15.10;10.13;;;;;;;;;;4991850;28;20483;-86
2022/06/08 07:45:51;;;;;;;12.07;9.43;;;;;;;;;;4991820;28;20431;-86
2022/06/08 07:51:02;;;;;;;13.02;9.50;;;;;;;;;;4991667;28;20042;-86
2022/06/08 07:53:28;;;;;;;14.18;10.30;;;;;;;;;;4990481;28;20046;-86
2022/06/08 07:55:55;;;;;;;12.35;9.32;;;;;;;;;;4989490;28;20238;-87
2022/06/08 07:58:21;;;;;;;14.27;9.73;;;;;;;;;;4992072;28;20046;-86
2022/06/08 08:00:47;;;;;;;13.65;9.32;;;;;;;;;;4991484;28;20389;-86
2022/06/08 08:03:19;;;;;;;13.00;8.90;;;;;;;;;;4990513;28;20412;-85
2022/06/08 08:05:45;;;;;;;11.68;8.93;;;;;;;;;;4991517;28;20046;-86
2022/06/08 08:08:12;;;;;;;11.32;8.50;;;;;;;;;;4990175;28;20122;-86
2022/06/08 08:10:39;;;;;;;11.70;9.10;;;;;;;;;;4990811;28;20507;-86
2022/06/08 08:13:07;;;;;;;12.40;9.20;;;;;;;;;;4991061;28;20050;-86
2022/06/08 08:15:33;;;;;;;11.95;9.20;;;;;;;;;;4990979;28;20054;-86
2022/06/08 08:17:59;;;;;;;12.57;9.30;;;;;;;;;;5005438;28;20434;-86
2022/06/08 08:20:28;;;;;;;15.25;9.63;;;;;;;;;;5010915;28;20537;-86
2022/06/08 08:22:55;;;;;;;11.38;9.00;;;;;;;;;;5010394;28;20085;-86
2022/06/08 08:25:22;;;;;;;12.82;9.48;;;;;;;;;;5008819;28;20501;-86
2022/06/08 08:27:48;;;;;;;12.40;9.82;;;;;;;;;;5009689;28;20045;-86
2022/06/08 08:30:16;;;;;;;13.32;9.75;;;;;;;;;;5009338;28;20112;-86
2022/06/08 08:32:42;;;;;;;12.80;9.68;;;;;;;;;;4994776;28;20069;-86
2022/06/08 08:35:08;;;;;;;13.30;9.15;;;;;;;;;;4990686;28;20482;-85
2022/06/08 08:37:34;;;;;;;12.13;8.73;;;;;;;;;;4990799;28;20499;-86
2022/06/08 08:40:01;;;;;;;9.90;8.82;;;;;;;;;;4990158;28;20046;-85
2022/06/08 08:42:27;;;;;;;11.95;8.90;;;;;;;;;;4990787;28;20054;-86
2022/06/08 08:44:56;;;;;;;11.95;7.93;;;;;;;;;;4989687;28;20100;-86
2022/06/08 08:47:41;;;;;;;12.05;8.70;;;;;;;;;;4988832;28;20084;-86
2022/06/08 08:50:10;;;;;;;11.35;8.70;;;;;;;;;;4989541;28;20054;-86
2022/06/08 08:52:42;;;;;;;10.10;8.40;;;;;;;;;;4989086;28;20043;-86
2022/06/08 08:55:23;;;;;;;11.45;8.77;;;;;;;;;;4990481;28;20046;-86
2022/06/08 08:57:52;;;;;;;9.25;7.40;;;;;;;;;;4989896;28;20097;-86
2022/06/08 09:00:21;;;;;;;10.05;7.50;;;;;;;;;;4991208;28;20060;-86
2022/06/08 09:05:34;;;;;;;9.32;7.65;;;;;;;;;;4990619;28;20384;-86
2022/06/08 09:08:00;;;;;;;14.05;8.88;;;;;;;;;;4988537;28;20389;-86
2022/06/08 09:10:27;;;;;;;10.50;7.70;;;;;;;;;;4989214;28;20089;-86
2022/06/08 09:12:54;;;;;;;9.80;7.72;;;;;;;;;;4989120;28;20113;-86
2022/06/08 09:15:39;;;;;;;9.88;7.40;;;;;;;;;;4991282;28;20402;-86
2022/06/08 09:18:05;;;;;;;8.23;6.15;;;;;;;;;;5009969;28;20042;-86
2022/06/08 09:20:36;;;;;;;9.15;5.75;;;;;;;;;;5009104;28;20046;-86
2022/06/08 09:23:19;;;;;;;7.35;5.18;;;;;;;;;;5008116;28;20046;-86
2022/06/08 09:25:45;;;;;;;7.32;5.40;;;;;;;;;;5009838;28;20307;-87
2022/06/08 09:28:31;;;;;;;8.23;5.80;;;;;;;;;;5008532;28;20057;-86
2022/06/08 09:30:57;;;;;;;;;;;;;;;;;;5000281;28;20042;-86
2022/06/08 09:33:37;;;;;;;7.05;4.97;;;;;;;;;;4990393;28;19922;-86
2022/06/08 09:36:06;;;;;;;8.23;5.07;;;;;;;;;;4990099;28;20045;-86
2022/06/08 09:38:37;;;;;;;7.70;5.30;;;;;;;;;;4994225;28;20046;-86
2022/06/08 09:41:03;;;;;;;8.77;5.75;;;;;;;;;;4992990;28;20130;-86
2022/06/08 09:43:32;;;;;;;7.32;5.13;;;;;;;;;;4994106;28;20129;-86
2022/06/08 09:46:17;;;;;;;7.15;5.68;;;;;;;;;;5003491;28;20096;-86
2022/06/08 09:51:51;;;;;;;7.82;5.80;;;;;;;;;;5013170;28;20389;-86
2022/06/08 09:54:17;;;;;;;8.32;5.68;;;;;;;;;;5012033;28;20045;-86
2022/06/08 09:56:43;;;;;;;7.55;5.40;;;;;;;;;;5012127;28;20069;-86
2022/06/08 09:59:26;;;;;;;6.22;5.50;;;;;;;;;;5011946;28;20050;-86
2022/06/08 10:01:58;;;;;;;7.68;5.68;;;;;;;;;;4974339;28;20547;-86
2022/06/08 10:04:43;;;;;;;6.88;5.65;;;;;;;;;;4974342;28;20053;-86
2022/06/08 10:07:15;;;;;;;6.90;5.10;;;;;;;;;;4973630;28;20039;-86
2022/06/08 10:09:44;;;;;;;8.40;6.43;;;;;;;;;;4973937;28;20443;-86
2022/06/08 10:12:14;;;;;;;7.32;5.88;;;;;;;;;;4974151;28;20051;-86
2022/06/08 10:14:44;;;;;;;7.97;6.15;;;;;;;;;;4978269;28;20544;-87
2022/06/08 10:17:17;;;;;;;7.57;6.05;;;;;;;;;;4993623;28;20054;-86
2022/06/08 10:19:50;;;;;;;7.22;6.15;;;;;;;;;;4993226;28;20065;-86
2022/06/08 10:22:17;;;;;;;9.05;6.53;;;;;;;;;;4992994;28;20409;-86
2022/06/08 10:24:55;;;;;;;6.97;5.95;;;;;;;;;;4993805;28;20053;-86
2022/06/08 10:27:24;;;;;;;8.73;6.53;;;;;;;;;;4993118;28;20513;-86
2022/06/08 10:29:56;;;;;;;6.95;6.20;;;;;;;;;;4991474;28;20046;-86
2022/06/08 10:32:29;;;;;;;7.13;5.35;;;;;;;;;;4992150;28;20050;-86
2022/06/08 10:34:55;;;;;;;6.38;5.50;;;;;;;;;;4992330;28;20065;-86
2022/06/08 10:37:23;;;;;;;7.88;5.00;;;;;;;;;;4993277;28;20133;-87
2022/06/08 10:39:49;;;;;;;7.97;5.13;;;;;;;;;;4993676;28;20246;-86
2022/06/08 10:42:40;;;;;;;7.68;5.43;;;;;;;;;;4993243;28;20046;-86
2022/06/08 10:45:21;;;;;;;8.15;5.55;;;;;;;;;;4991241;28;20122;-86
2022/06/08 10:48:06;;;;;;;5.30;4.60;;;;;;;;;;4975564;28;20088;-86
2022/06/08 10:50:37;;;;;;;6.18;5.15;;;;;;;;;;4992623;28;20487;-86
2022/06/08 10:56:23;;;;;;;7.03;4.70;;;;;;;;;;4991331;28;20089;-86
2022/06/08 10:59:09;;;;;;;5.57;4.75;;;;;;;;;;4990768;28;20483;-87
2022/06/08 11:01:35;;;;;;;;;;;;;;;;;;4988304;28;20054;-86
2022/06/08 11:04:05;;;;;;;5.45;4.47;;;;;;;;;;4991978;28;20004;-87
2022/06/08 11:06:47;;;;;;;6.47;4.43;;;;;;;;;;4991360;28;20058;-86
2022/06/08 11:09:20;;;;;;;8.00;5.47;;;;;;;;;;4991070;28;20058;-86
2022/06/08 11:11:49;;;;;;;7.60;5.88;;;;;;;;;;4991366;28;20112;-87
2022/06/08 11:14:30;;;;;;;8.00;6.10;;;;;;;;;;4990267;28;20053;-86
2022/06/08 11:16:58;;;;;;;8.82;6.50;;;;;;;;;;4991330;28;20058;-87
2022/06/08 11:19:25;;;;;;;9.80;7.13;;;;;;;;;;4990700;28;20101;-86
2022/06/08 11:21:54;;;;;;;9.40;6.80;;;;;;;;;;4990202;28;20088;-86
2022/06/08 11:24:26;;;;;;;7.85;6.95;;;;;;;;;;4992166;28;20403;-87
2022/06/08 11:26:55;;;;;;;10.93;8.02;;;;;;;;;;4991863;28;20054;-87
2022/06/08 11:29:21;;;;;;;10.07;9.07;;;;;;;;;;4992341;28;20053;-87
2022/06/08 11:31:49;;;;;;;10.43;8.30;;;;;;;;;;4992269;28;20042;-87
2022/06/08 11:34:21;;;;;;;11.82;8.77;;;;;;;;;;4990548;28;20491;-86
2022/06/08 11:36:59;;;;;;;10.95;8.70;;;;;;;;;;4989783;28;20050;-87
2022/06/08 11:39:45;;;;;;;10.55;9.38;;;;;;;;;;4991874;28;20431;-87
2022/06/08 11:42:29;;;;;;;9.15;7.43;;;;;;;;;;4990812;28;20046;-86
2022/06/08 11:45:04;;;;;;;8.02;7.22;;;;;;;;;;4990483;28;20050;-87
2022/06/08 11:47:48;;;;;;;10.50;7.05;;;;;;;;;;4991384;28;20412;-87
2022/06/08 11:50:21;;;;;;;7.75;5.95;;;;;;;;;;4991012;28;20050;-87
2022/06/08 11:52:57;;;;;;;6.65;5.90;;;;;;;;;;4991899;28;20108;-87
2022/06/08 11:55:27;;;;;;;6.63;5.53;;;;;;;;;;4990153;28;20513;-87
2022/06/08 11:58:05;;;;;;;6.68;5.90;;;;;;;;;;4989513;28;20312;-85
2022/06/08 12:00:31;;;;;;;7.95;6.63;;;;;;;;;;4990929;28;20046;-87
2022/06/08 12:03:21;;;;;;;7.25;6.55;;;;;;;;;;4990999;28;20058;-87
2022/06/08 12:05:50;;;;;;;8.80;6.43;;;;;;;;;;4987543;28;20120;-87
2022/06/08 12:08:19;;;;;;;9.38;7.55;;;;;;;;;;4990106;28;20488;-86
2022/06/08 12:10:46;;;;;;;8.65;6.95;;;;;;;;;;4991234;28;20133;-87
2022/06/08 12:13:20;;;;;;;7.57;6.85;;;;;;;;;;4990230;28;20043;-87
2022/06/08 12:15:51;;;;;;;9.57;7.82;;;;;;;;;;4990891;28;20050;-86
2022/06/08 12:18:26;;;;;;;9.90;7.53;;;;;;;;;;4991128;28;20038;-86
2022/06/08 12:21:22;;;;;;;9.52;7.75;;;;;;;;;;4990008;28;20053;-87
2022/06/08 12:24:07;;;;;;;9.02;7.88;;;;;;;;;;4990787;28;20046;-87
2022/06/08 12:26:56;;;;;;;9.50;8.00;;;;;;;;;;4991212;28;20050;-87
2022/06/08 12:29:32;;;;;;;10.52;8.45;;;;;;;;;;4990580;28;20455;-86
2022/06/08 12:32:07;;;;;;;11.90;9.30;;;;;;;;;;4989497;28;20108;-87
2022/06/08 12:34:34;;;;;;;11.25;9.05;;;;;;;;;;4991163;28;20130;-87
2022/06/08 12:37:19;;;;;;;10.00;8.57;;;;;;;;;;4990825;28;20042;-86
2022/06/08 12:39:45;;;;;;;11.70;9.45;;;;;;;;;;4990883;28;20097;-87
2022/06/08 12:42:25;;;;;;;12.65;10.00;;;;;;;;;;4990784;28;20555;-86
2022/06/08 12:44:53;;;;;;;14.48;11.13;;;;;;;;;;4989679;28;20046;-86
2022/06/08 12:47:20;;;;;;;14.45;10.65;;;;;;;;;;4991055;28;20054;-86
2022/06/08 12:49:57;;;;;;;13.07;11.43;;;;;;;;;;4989593;28;20121;-86
2022/06/08 12:52:33;;;;;;;15.20;12.10;;;;;;;;;;4989669;28;20050;-86
2022/06/08 12:54:59;;;;;;;15.70;13.02;;;;;;;;;;4990614;28;20070;-86
2022/06/08 12:57:28;;;;;;;15.10;12.75;;;;;;;;;;4989441;28;20046;-85
2022/06/08 12:59:56;;;;;;;14.35;12.63;;;;;;;;;;4989784;28;20046;-87
2022/06/08 13:02:25;;;;;;;16.65;13.45;;;;;;;;;;4989543;28;20433;-87
2022/06/08 13:04:52;;;;;;;15.18;13.57;;;;;;;;;;4989528;28;20050;-87
2022/06/08 13:07:20;;;;;;;19.45;15.15;;;;;;;;;;4989717;28;20125;-86
2022/06/08 13:09:48;;;;;;;16.80;15.02;;;;;;;;;;4989218;28;20062;-87
2022/06/08 13:12:17;;;;;;;18.60;15.32;;;;;;;;;;4992902;28;20054;-86
2022/06/08 13:14:43;;;;;;;22.02;15.55;;;;;;;;;;4993259;28;20038;-87
2022/06/08 13:17:10;;;;;;;20.92;17.80;;;;;;;;;;4993231;28;20054;-86
2022/06/08 13:19:36;;;;;;;19.40;16.50;;;;;;;;;;4993665;28;20065;-87
2022/06/08 13:22:02;;;;;;;14.35;12.15;;;;;;;;;;4994254;28;20384;-86
2022/06/08 13:24:28;;;;;;;12.68;10.13;;;;;;;;;;4995326;28;20049;-85
2022/06/08 13:26:54;;;;;;;8.60;7.68;;;;;;;;;;4998846;28;20046;-86
2022/06/08 13:29:21;;;;;;;8.13;7.32;;;;;;;;;;4977374;28;20455;-88
2022/06/08 13:31:48;;;;;;;8.52;7.50;;;;;;;;;;4993814;28;20042;-91
2022/06/08 13:34:15;;;;;;;9.40;7.68;;;;;;;;;;4992830;28;20057;-90
2022/06/08 13:36:44;;;;;;;10.93;7.55;;;;;;;;;;4974844;28;20495;-90
2022/06/08 13:39:30;;;;;;;10.30;8.40;;;;;;;;;;5017212;28;20045;-92
2022/06/08 13:42:01;;;;;;;11.15;10.05;;;;;;;;;;5001195;28;20042;-90
2022/06/08 13:44:32;;;;;;;13.63;11.23;;;;;;;;;;4995183;28;20054;-90
2022/06/08 13:47:01;;;;;;;15.48;12.82;;;;;;;;;;4994573;28;20527;-90
2022/06/08 13:49:29;;;;;;;19.83;16.10;;;;;;;;;;4994677;28;20128;-93
2022/06/08 13:51:55;;;;;;;19.48;15.95;;;;;;;;;;4994450;28;20050;-89
2022/06/08 13:54:28;;;;;;;26.98;18.13;;;;;;;;;;4994922;28;20042;-90
2022/06/08 13:56:54;;;;;;;25.45;18.23;;;;;;;;;;4993531;28;20080;-89
2022/06/08 13:59:21;;;;;;;21.70;16.77;;;;;;;;;;5012732;28;20407;-89
2022/06/08 14:01:48;;;;;;;21.98;16.25;;;;;;;;;;5010798;28;20050;-89
2022/06/08 14:04:16;;;;;;;23.85;16.88;;;;;;;;;;4993846;28;20054;-89
2022/06/08 14:14:57;;;;;;;20.00;14.18;;;;;;;;;;4983240;28;20050;-89
2022/06/08 14:17:24;;;;;;;18.45;14.23;;;;;;;;;;4992306;28;20194;-90
2022/06/08 14:19:55;;;;;;;20.45;14.55;;;;;;;;;;4986197;28;20042;-89
2022/06/08 14:22:23;;;;;;;18.05;14.30;;;;;;;;;;5007568;28;20499;-89
2022/06/08 14:24:53;;;;;;;19.33;14.50;;;;;;;;;;4991940;28;20127;-87
2022/06/08 14:27:20;;;;;;;21.67;14.20;;;;;;;;;;4994958;28;20056;-91
2022/06/08 14:29:47;;;;;;;18.58;13.98;;;;;;;;;;4996379;28;20046;-89
2022/06/08 14:32:18;;;;;;;19.73;14.05;;;;;;;;;;4992802;28;20046;-89
2022/06/08 14:34:45;;;;;;;18.52;13.50;;;;;;;;;;4992624;28;20076;-89
2022/06/08 14:37:12;;;;;;;19.52;13.75;;;;;;;;;;4993310;28;20125;-89
2022/06/08 14:39:39;;;;;;;19.90;13.88;;;;;;;;;;4993395;28;20039;-89
2022/06/08 14:42:06;;;;;;;16.63;14.23;;;;;;;;;;4990929;28;20057;-89
2022/06/08 14:44:32;;;;;;;16.67;12.25;;;;;;;;;;4993148;28;20038;-89
2022/06/08 14:47:03;;;;;;;13.23;9.93;;;;;;;;;;4992570;28;20042;-90
2022/06/08 14:49:32;;;;;;;9.63;8.00;;;;;;;;;;4991340;28;20050;-91
2022/06/08 14:51:58;;;;;;;7.57;6.70;;;;;;;;;;4991374;28;20104;-94
2022/06/08 14:54:29;;;;;;;9.20;7.72;;;;;;;;;;4993123;28;20061;-89
2022/06/08 14:57:07;;;;;;;9.15;7.15;;;;;;;;;;5000533;28;20046;-96
2022/06/08 14:59:35;;;;;;;10.38;7.97;;;;;;;;;;4993574;28;20034;-89
2022/06/08 15:02:08;;;;;;;10.13;7.45;;;;;;;;;;4998753;28;20042;-91
2022/06/08 15:04:35;;;;;;;8.27;7.05;;;;;;;;;;5016085;28;20054;-87